Time;durP1;ratioP1;P1;durP2;ratioP2;P2;SDS_P1;SDS_P2;PMS_P1;PMS_P2;Temp;Humidity;BMP_temperature;BMP_pressure;BME280_temperature;BME280_humidity;BME280_pressure;Samples;Min_cycle;Max_cycle;Signal;HPM_P1;HPM_P2
2023/06/08 00:00:22;;;;;;;4.13;3.50;;;15.30;99.90;;;;;;5217650;28;20059;-67
2023/06/08 00:02:55;;;;;;;3.75;3.42;;;15.30;99.90;;;;;;5217977;28;20051;-67
2023/06/08 00:05:27;;;;;;;3.92;3.20;;;15.20;99.90;;;;;;5192830;28;20091;-68
2023/06/08 00:07:59;;;;;;;4.03;3.72;;;15.20;99.90;;;;;;5240864;28;20029;-68
2023/06/08 00:10:33;;;;;;;3.88;3.38;;;15.30;99.90;;;;;;5224511;28;20259;-68
2023/06/08 00:13:04;;;;;;;4.68;4.28;;;15.20;99.90;;;;;;5185410;28;20034;-69
2023/06/08 00:15:35;;;;;;;5.00;3.78;;;15.10;99.90;;;;;;5208979;28;20036;-68
2023/06/08 00:18:08;;;;;;;3.95;3.55;;;15.00;99.90;;;;;;5220657;28;20037;-67
2023/06/08 00:20:42;;;;;;;4.35;3.95;;;15.00;99.90;;;;;;5222400;28;20335;-68
2023/06/08 00:23:16;;;;;;;5.85;3.72;;;15.00;99.90;;;;;;5221407;28;20039;-69
2023/06/08 00:25:47;;;;;;;5.47;3.67;;;15.00;99.90;;;;;;5221535;28;20044;-69
2023/06/08 00:28:23;;;;;;;5.28;3.90;;;15.10;99.90;;;;;;5208508;28;20040;-66
2023/06/08 00:30:57;;;;;;;3.80;3.33;;;15.10;99.90;;;;;;5180596;28;20029;-67
2023/06/08 00:33:31;;;;;;;3.83;3.42;;;15.10;99.90;;;;;;5219513;28;20046;-69
2023/06/08 00:36:06;;;;;;;5.03;4.53;;;15.00;99.90;;;;;;5204047;28;20056;-68
2023/06/08 00:38:41;;;;;;;5.25;3.05;;;14.90;99.90;;;;;;5203517;28;20249;-68
2023/06/08 00:41:12;;;;;;;3.78;3.17;;;14.80;99.90;;;;;;5220716;28;20029;-67
2023/06/08 00:43:47;;;;;;;3.97;3.58;;;14.80;99.90;;;;;;5220543;28;20040;-67
2023/06/08 00:46:23;;;;;;;3.72;3.20;;;14.80;99.90;;;;;;5185454;28;20033;-68
2023/06/08 00:48:55;;;;;;;3.63;3.28;;;14.80;99.90;;;;;;5220154;28;20037;-69
2023/06/08 00:51:32;;;;;;;3.92;3.50;;;14.70;99.90;;;;;;5220648;28;20036;-68
2023/06/08 00:54:04;;;;;;;3.33;3.03;;;14.70;99.90;;;;;;5220417;28;20441;-68
2023/06/08 00:56:40;;;;;;;4.43;4.03;;;14.70;99.90;;;;;;5220126;28;20041;-67
2023/06/08 00:59:14;;;;;;;3.67;3.38;;;14.70;99.90;;;;;;5203482;28;20511;-68
2023/06/08 01:01:45;;;;;;;4.40;3.35;;;14.70;99.90;;;;;;5240304;22;20176;-68
2023/06/08 01:04:19;;;;;;;4.18;3.78;;;14.70;99.90;;;;;;5209666;28;20041;-68
2023/06/08 01:07:01;;;;;;;4.35;3.95;;;14.60;99.90;;;;;;5221975;28;20233;-67
2023/06/08 01:09:42;;;;;;;4.22;3.83;;;14.70;99.90;;;;;;5204790;28;20525;-70
2023/06/08 01:12:52;;;;;;;3.92;3.40;;;14.60;99.90;;;;;;5219935;28;20035;-68
2023/06/08 01:15:30;;;;;;;3.95;3.55;;;14.50;99.90;;;;;;5217641;28;20028;-67
2023/06/08 01:18:07;;;;;;;3.70;3.35;;;14.50;99.90;;;;;;5220042;28;20048;-69
2023/06/08 01:21:02;;;;;;;4.70;3.30;;;14.50;99.90;;;;;;5219309;28;20059;-66
2023/06/08 01:24:13;;;;;;;4.32;3.92;;;14.50;99.90;;;;;;5219673;28;20029;-67
2023/06/08 01:26:49;;;;;;;4.18;3.50;;;14.50;99.90;;;;;;5220974;28;20025;-67
2023/06/08 01:29:33;;;;;;;4.70;3.97;;;14.50;99.90;;;;;;5219112;28;20043;-67
2023/06/08 01:32:05;;;;;;;6.82;4.15;;;14.50;99.90;;;;;;5182668;28;20028;-66
2023/06/08 01:34:39;;;;;;;3.97;3.60;;;14.50;99.90;;;;;;5202940;28;20344;-69
2023/06/08 01:37:22;;;;;;;6.00;4.22;;;14.40;99.90;;;;;;5217284;28;20024;-66
2023/06/08 01:40:00;;;;;;;4.68;3.80;;;14.30;99.90;;;;;;5202939;28;20290;-68
2023/06/08 01:42:34;;;;;;;4.00;3.60;;;14.30;99.90;;;;;;5186406;28;20329;-68
2023/06/08 01:45:35;;;;;;;4.10;3.55;;;14.40;99.90;;;;;;5206850;28;20033;-70
2023/06/08 01:48:11;;;;;;;4.30;3.85;;;14.30;99.90;;;;;;5216905;28;20032;-69
2023/06/08 01:50:44;;;;;;;4.82;3.60;;;14.30;99.90;;;;;;5216745;28;20044;-67
2023/06/08 01:53:17;;;;;;;5.25;3.95;;;14.30;99.90;;;;;;5201759;28;20374;-70
2023/06/08 01:55:49;;;;;;;5.60;4.30;;;14.20;99.90;;;;;;5214737;28;20037;-68
2023/06/08 01:58:21;;;;;;;4.50;3.75;;;14.20;99.90;;;;;;5217319;28;20036;-67
2023/06/08 02:00:52;;;;;;;4.85;4.13;;;14.20;99.90;;;;;;5214267;28;20055;-68
2023/06/08 02:03:26;;;;;;;4.85;4.15;;;14.20;99.90;;;;;;5224119;28;20037;-68
2023/06/08 02:06:00;;;;;;;5.30;4.53;;;14.20;99.90;;;;;;5190671;28;20579;-68
2023/06/08 02:08:34;;;;;;;6.75;4.97;;;14.10;99.90;;;;;;5200993;28;20045;-66
2023/06/08 02:11:09;;;;;;;6.30;4.93;;;14.10;99.90;;;;;;5184947;28;20124;-68
2023/06/08 02:13:42;;;;;;;7.57;4.47;;;14.00;99.90;;;;;;5202015;28;20033;-70
2023/06/08 02:16:18;;;;;;;6.32;4.53;;;14.10;99.90;;;;;;5182473;28;20043;-66
2023/06/08 02:18:52;;;;;;;10.40;4.93;;;14.10;99.90;;;;;;5201593;28;20051;-67
2023/06/08 02:21:23;;;;;;;6.07;4.88;;;14.20;99.90;;;;;;5194928;28;20068;-66
2023/06/08 02:23:59;;;;;;;6.32;5.15;;;14.30;99.90;;;;;;5218761;28;20366;-67
2023/06/08 02:26:30;;;;;;;7.32;5.55;;;14.30;99.90;;;;;;5185959;28;20409;-69
2023/06/08 02:29:01;;;;;;;7.88;6.32;;;14.40;99.90;;;;;;5220078;28;20029;-68
2023/06/08 02:31:33;;;;;;;6.05;5.40;;;14.30;99.90;;;;;;5199589;28;20435;-66
2023/06/08 02:34:07;;;;;;;5.30;4.75;;;14.30;99.90;;;;;;5199277;28;20043;-66
2023/06/08 02:36:39;;;;;;;;;;;14.10;99.90;;;;;;5181605;28;20037;-65
2023/06/08 02:39:11;;;;;;;8.50;5.78;;;14.20;99.90;;;;;;5199094;28;19905;-66
2023/06/08 02:41:42;;;;;;;5.80;5.10;;;14.20;99.90;;;;;;5201814;28;20029;-69
2023/06/08 02:44:13;;;;;;;6.10;4.93;;;14.20;99.90;;;;;;5181506;28;20037;-69
2023/06/08 02:46:45;;;;;;;7.50;5.60;;;14.20;99.90;;;;;;5210852;28;20041;-68
2023/06/08 02:49:16;;;;;;;5.68;4.78;;;14.20;99.90;;;;;;5219499;28;20025;-67
2023/06/08 02:51:50;;;;;;;4.82;4.18;;;14.20;99.90;;;;;;5212637;28;20036;-68
2023/06/08 02:54:22;;;;;;;6.97;5.53;;;14.10;99.90;;;;;;5199953;28;20492;-67
2023/06/08 02:56:53;;;;;;;6.97;5.05;;;14.00;99.90;;;;;;5184281;28;20040;-69
2023/06/08 02:59:24;;;;;;;6.35;4.70;;;14.00;99.90;;;;;;5198762;28;20037;-66
2023/06/08 03:01:58;;;;;;;5.20;4.68;;;13.90;99.90;;;;;;5187311;28;20061;-66
2023/06/08 03:04:30;;;;;;;6.75;5.00;;;13.90;99.90;;;;;;5189185;28;20053;-68
2023/06/08 03:07:04;;;;;;;8.15;4.68;;;13.80;99.90;;;;;;5172272;28;20039;-70
2023/06/08 03:09:38;;;;;;;6.63;4.72;;;13.80;99.90;;;;;;5184649;28;20033;-69
2023/06/08 03:12:12;;;;;;;5.78;5.15;;;13.90;99.90;;;;;;5199613;28;20033;-67
2023/06/08 03:14:43;;;;;;;4.72;4.03;;;13.90;99.90;;;;;;5181938;28;20040;-68
2023/06/08 03:17:19;;;;;;;5.13;4.47;;;13.90;99.90;;;;;;5178344;28;20401;-69
2023/06/08 03:19:51;;;;;;;6.68;5.25;;;13.90;99.90;;;;;;5197385;28;20379;-67
2023/06/08 03:22:24;;;;;;;5.40;4.47;;;13.90;99.90;;;;;;5181050;28;20033;-68
2023/06/08 03:25:00;;;;;;;7.43;5.78;;;14.00;99.90;;;;;;5183714;28;20037;-66
2023/06/08 03:27:32;;;;;;;5.90;4.85;;;14.10;99.90;;;;;;5188625;28;20055;-66
2023/06/08 03:30:03;;;;;;;6.90;4.93;;;14.30;99.90;;;;;;5223007;28;20032;-70
2023/06/08 03:32:35;;;;;;;5.47;4.90;;;14.40;99.90;;;;;;5177922;28;20041;-67
2023/06/08 03:35:09;;;;;;;6.00;5.15;;;14.40;99.90;;;;;;5197973;28;20039;-69
2023/06/08 03:37:49;;;;;;;6.90;5.32;;;14.50;99.90;;;;;;5202092;28;20033;-69
2023/06/08 03:40:21;;;;;;;5.65;4.88;;;14.70;99.90;;;;;;5185073;28;20033;-68
2023/06/08 03:42:55;;;;;;;6.90;5.15;;;14.80;99.90;;;;;;5202740;28;20025;-69
2023/06/08 03:45:27;;;;;;;7.43;5.50;;;14.90;99.90;;;;;;5184456;28;20013;-69
2023/06/08 03:48:00;;;;;;;6.95;5.45;;;15.10;99.90;;;;;;5205923;28;20033;-67
2023/06/08 03:50:37;;;;;;;5.30;4.72;;;15.40;99.90;;;;;;5188480;28;20062;-68
2023/06/08 03:53:11;;;;;;;5.93;5.30;;;15.60;99.90;;;;;;5185581;28;20044;-66
2023/06/08 03:55:45;;;;;;;6.00;5.13;;;15.50;99.90;;;;;;5204595;28;20032;-68
2023/06/08 03:58:16;;;;;;;5.13;4.47;;;15.70;99.90;;;;;;5204500;28;20037;-68
2023/06/08 04:00:50;;;;;;;6.47;4.85;;;15.90;99.90;;;;;;5211525;28;20040;-68
2023/06/08 04:03:24;;;;;;;6.03;4.50;;;16.10;99.90;;;;;;5198265;28;20049;-70
2023/06/08 04:05:58;;;;;;;6.95;4.57;;;16.20;99.90;;;;;;5172770;28;20371;-67
2023/06/08 04:08:32;;;;;;;5.70;4.50;;;16.50;99.90;;;;;;5170722;28;20056;-66
2023/06/08 04:11:04;;;;;;;6.05;4.65;;;16.70;99.90;;;;;;5196602;28;20205;-67
2023/06/08 04:13:46;;;;;;;6.00;4.15;;;16.70;99.90;;;;;;5222285;28;20032;-68
2023/06/08 04:16:18;;;;;;;4.68;3.78;;;16.90;99.90;;;;;;5184098;28;20041;-68
2023/06/08 04:18:49;;;;;;;5.88;4.70;;;17.10;99.90;;;;;;5187777;28;20041;-67
2023/06/08 04:21:25;;;;;;;4.38;3.95;;;17.10;99.90;;;;;;5220898;28;20025;-68
2023/06/08 04:23:56;;;;;;;4.45;4.05;;;17.40;99.90;;;;;;5219997;28;20033;-66
2023/06/08 04:26:28;;;;;;;4.65;3.83;;;17.50;99.90;;;;;;5218863;28;20040;-65
2023/06/08 04:29:03;;;;;;;4.30;3.40;;;17.50;99.90;;;;;;5167293;28;20334;-67
2023/06/08 04:31:35;;;;;;;3.78;3.38;;;17.80;99.90;;;;;;5200965;28;20047;-67
2023/06/08 04:34:12;;;;;;;6.70;4.28;;;18.20;99.90;;;;;;5167261;28;20052;-68
2023/06/08 04:36:43;;;;;;;4.40;4.00;;;18.70;1.00;;;;;;5167167;28;20620;-65
2023/06/08 04:39:20;;;;;;;3.78;3.38;;;19.20;1.00;;;;;;5167294;28;20041;-68
2023/06/08 04:41:57;;;;;;;3.33;2.83;;;19.40;1.00;;;;;;5219829;28;20357;-67
2023/06/08 04:44:31;;;;;;;3.90;3.50;;;19.80;1.00;;;;;;5187581;28;20043;-68
2023/06/08 04:47:07;;;;;;;4.35;3.95;;;20.10;1.00;;;;;;5212542;28;20250;-68
2023/06/08 04:49:41;;;;;;;4.57;3.92;;;20.20;1.00;;;;;;5200582;28;20034;-68
2023/06/08 04:52:15;;;;;;;3.72;3.33;;;20.40;1.00;;;;;;5218278;28;20029;-67
2023/06/08 04:54:52;;;;;;;3.75;3.42;;;20.60;99.90;;;;;;5199600;28;20037;-69
2023/06/08 04:57:27;;;;;;;4.38;3.50;;;20.70;99.90;;;;;;5202827;28;20211;-69
2023/06/08 05:00:00;;;;;;;3.20;2.90;;;20.80;99.90;;;;;;5186071;28;20192;-70
2023/06/08 05:02:34;;;;;;;4.25;3.75;;;20.60;30.80;;;;;;5175979;28;20060;-68
2023/06/08 05:05:07;;;;;;;;;;;20.60;99.90;;;;;;5173410;28;20064;-68
2023/06/08 05:07:40;;;;;;;4.00;3.30;;;20.70;99.90;;;;;;5201025;28;19909;-66
2023/06/08 05:10:12;;;;;;;4.43;3.33;;;21.00;99.90;;;;;;5183743;28;20025;-67
2023/06/08 05:12:43;;;;;;;4.55;3.95;;;21.30;8.60;;;;;;5199199;28;20033;-68
2023/06/08 05:15:17;;;;;;;5.78;3.55;;;21.40;1.00;;;;;;5196636;28;20390;-67
2023/06/08 05:17:49;;;;;;;6.13;3.85;;;21.40;1.00;;;;;;5200682;28;20043;-71
2023/06/08 05:20:23;;;;;;;4.00;3.50;;;21.50;1.00;;;;;;5204601;28;20027;-69
2023/06/08 05:22:58;;;;;;;3.78;3.47;;;21.60;1.00;;;;;;5200409;28;20047;-68
2023/06/08 05:25:30;;;;;;;3.40;3.05;;;21.60;1.00;;;;;;5186236;28;20506;-69
2023/06/08 05:28:01;;;;;;;3.72;3.42;;;21.70;1.00;;;;;;5216417;28;20415;-69
2023/06/08 05:30:37;;;;;;;4.38;3.28;;;21.80;1.00;;;;;;5215406;28;20021;-68
2023/06/08 05:33:11;;;;;;;4.75;3.83;;;21.80;1.00;;;;;;5198187;28;20061;-69
2023/06/08 05:35:47;;;;;;;4.05;3.65;;;21.60;1.00;;;;;;5181169;28;20027;-68
2023/06/08 05:38:22;;;;;;;3.33;3.03;;;21.40;1.00;;;;;;5201791;28;20037;-68
2023/06/08 05:40:53;;;;;;;3.63;3.28;;;21.20;1.00;;;;;;5185688;28;20067;-68
2023/06/08 05:43:27;;;;;;;4.72;3.80;;;21.10;1.00;;;;;;5192058;28;20322;-68
2023/06/08 05:46:01;;;;;;;3.13;2.83;;;21.00;36.20;;;;;;5193706;28;20060;-68
2023/06/08 05:48:32;;;;;;;4.17;3.23;;;21.10;99.90;;;;;;5195146;28;20013;-70
2023/06/08 05:51:06;;;;;;;3.50;3.20;;;21.30;99.90;;;;;;5210051;28;20017;-70
2023/06/08 05:53:39;;;;;;;3.03;2.70;;;21.30;99.90;;;;;;5173987;28;20379;-67
2023/06/08 05:56:13;;;;;;;3.60;3.30;;;21.20;1.00;;;;;;5192181;28;20023;-68
2023/06/08 05:58:44;;;;;;;;;;;21.00;1.00;;;;;;5209994;28;20577;-69
2023/06/08 06:01:20;;;;;;;3.40;3.08;;;21.00;99.90;;;;;;5208077;28;20351;-68
2023/06/08 06:03:55;;;;;;;4.93;3.00;;;21.20;99.90;;;;;;5189997;28;20067;-69
2023/06/08 06:06:32;;;;;;;3.47;2.80;;;21.30;1.00;;;;;;5171540;28;20568;-68
2023/06/08 06:09:03;;;;;;;3.97;3.22;;;21.30;1.00;;;;;;5193371;28;20456;-68
2023/06/08 06:11:37;;;;;;;3.55;3.22;;;21.40;1.00;;;;;;5185768;28;20044;-69
2023/06/08 06:14:11;;;;;;;3.83;3.13;;;21.30;1.00;;;;;;5216758;28;20471;-66
2023/06/08 06:16:45;;;;;;;3.60;3.30;;;21.20;1.00;;;;;;5192052;28;20036;-68
2023/06/08 06:19:16;;;;;;;3.17;2.90;;;21.20;1.00;;;;;;5202517;28;20350;-69
2023/06/08 06:21:53;;;;;;;3.60;3.10;;;21.20;1.00;;;;;;5202187;28;20039;-67
2023/06/08 06:24:27;;;;;;;3.35;3.03;;;21.30;1.00;;;;;;5201362;28;20041;-69
2023/06/08 06:26:58;;;;;;;2.80;2.60;;;21.40;1.00;;;;;;5214214;28;20063;-65
2023/06/08 06:29:32;;;;;;;3.30;3.00;;;21.40;1.00;;;;;;5219310;28;20027;-69
2023/06/08 06:32:03;;;;;;;3.83;3.17;;;21.30;1.00;;;;;;5178963;28;20037;-70
2023/06/08 06:34:38;;;;;;;5.15;4.10;;;21.30;1.00;;;;;;5197671;28;20379;-69
2023/06/08 06:37:11;;;;;;;;;;;21.30;1.00;;;;;;5199415;28;20582;-69
2023/06/08 06:39:45;;;;;;;4.10;3.70;;;21.50;90.60;;;;;;5184701;28;19916;-67
2023/06/08 06:42:16;;;;;;;4.45;4.03;;;21.60;74.70;;;;;;5219222;28;20039;-69
2023/06/08 06:44:47;;;;;;;4.07;3.67;;;21.80;1.00;;;;;;5192202;28;20662;-68
2023/06/08 06:47:18;;;;;;;4.72;3.85;;;21.80;1.00;;;;;;5186943;28;20047;-67
2023/06/08 06:49:52;;;;;;;5.07;3.65;;;21.60;61.60;;;;;;5204600;28;20313;-68
2023/06/08 06:52:23;;;;;;;4.40;3.42;;;21.90;1.00;;;;;;5206906;28;20029;-68
2023/06/08 06:54:55;;;;;;;4.32;3.35;;;22.00;1.00;;;;;;5208695;28;20029;-68
2023/06/08 06:57:28;;;;;;;4.55;3.78;;;22.00;1.00;;;;;;5208275;28;20500;-67
2023/06/08 07:00:07;;;;;;;4.82;3.72;;;22.00;1.00;;;;;;5208262;28;20032;-69
2023/06/08 07:02:40;;;;;;;5.07;3.85;;;22.40;1.00;;;;;;5208901;28;20041;-68
2023/06/08 07:05:14;;;;;;;4.50;3.83;;;22.70;99.90;;;;;;5179372;28;20314;-69
2023/06/08 07:07:45;;;;;;;4.38;3.95;;;22.50;99.90;;;;;;5184428;28;20041;-69
2023/06/08 07:10:16;;;;;;;4.90;3.58;;;22.50;1.00;;;;;;5206754;28;20013;-69
2023/06/08 07:12:50;;;;;;;3.88;3.50;;;22.80;1.00;;;;;;5210870;28;20037;-68
2023/06/08 07:15:22;;;;;;;3.85;3.50;;;23.10;99.90;;;;;;5193577;28;20033;-65
2023/06/08 07:17:56;;;;;;;3.88;3.45;;;23.30;1.00;;;;;;5213214;28;20041;-68
2023/06/08 07:20:27;;;;;;;5.47;4.43;;;23.80;1.00;;;;;;5199677;28;20028;-68
2023/06/08 07:22:58;;;;;;;3.53;2.67;;;24.10;1.00;;;;;;5205909;28;20210;-66
2023/06/08 07:25:30;;;;;;;3.88;3.47;;;24.50;99.90;;;;;;5187282;28;20045;-69
2023/06/08 07:28:01;;;;;;;4.22;3.60;;;24.80;1.00;;;;;;5206720;28;20034;-71
2023/06/08 07:30:35;;;;;;;3.85;3.10;;;25.00;99.90;;;;;;5208377;28;20036;-71
2023/06/08 07:33:06;;;;;;;3.72;2.80;;;25.50;96.50;;;;;;5180908;28;20029;-68
2023/06/08 07:35:43;;;;;;;3.92;3.53;;;25.40;1.00;;;;;;5211641;28;20104;-67
2023/06/08 07:38:15;;;;;;;3.60;3.28;;;25.80;1.00;;;;;;5180815;28;20044;-65
2023/06/08 07:40:46;;;;;;;4.25;3.25;;;25.80;99.90;;;;;;5192899;28;20047;-66
2023/06/08 07:43:20;;;;;;;3.83;3.45;;;26.30;99.90;;;;;;5198585;28;20062;-69
2023/06/08 07:45:52;;;;;;;4.03;3.30;;;26.70;1.00;;;;;;5215995;28;20040;-68
2023/06/08 07:48:27;;;;;;;4.28;3.42;;;26.80;1.00;;;;;;5216973;28;20037;-68
2023/06/08 07:51:02;;;;;;;4.38;3.25;;;27.30;1.00;;;;;;5171041;28;20037;-68
2023/06/08 07:53:38;;;;;;;;;;;27.30;1.00;;;;;;5196328;28;20029;-66
2023/06/08 07:56:10;;;;;;;6.03;3.30;;;26.90;99.90;;;;;;5177448;28;19917;-67
2023/06/08 07:58:43;;;;;;;4.60;3.15;;;27.10;1.00;;;;;;5208018;28;20052;-69
2023/06/08 08:01:16;;;;;;;3.80;3.30;;;27.40;1.00;;;;;;5176980;28;20051;-68
2023/06/08 08:03:48;;;;;;;3.80;3.30;;;27.50;1.00;;;;;;5194942;28;20362;-69
2023/06/08 08:06:21;;;;;;;3.60;3.15;;;27.90;1.00;;;;;;5197743;28;20384;-68
2023/06/08 08:08:54;;;;;;;5.83;3.30;;;28.00;99.90;;;;;;5195230;28;20037;-69
2023/06/08 08:11:26;;;;;;;3.65;3.25;;;27.50;99.90;;;;;;5199244;28;20041;-69
2023/06/08 08:14:00;;;;;;;4.10;3.65;;;27.70;99.90;;;;;;5198147;28;20041;-67
2023/06/08 08:16:34;;;;;;;5.15;3.65;;;28.10;99.90;;;;;;5202237;28;20029;-71
2023/06/08 08:19:08;;;;;;;4.88;4.32;;;28.50;6.00;;;;;;5188536;28;20025;-69
2023/06/08 08:21:40;;;;;;;4.88;3.72;;;28.40;99.90;;;;;;5203795;28;20389;-69
2023/06/08 08:24:13;;;;;;;6.82;4.45;;;28.30;1.00;;;;;;5200142;28;20036;-69
2023/06/08 08:26:50;;;;;;;4.18;3.78;;;28.50;99.90;;;;;;5169785;28;20037;-70
2023/06/08 08:29:21;;;;;;;5.00;3.97;;;28.30;99.90;;;;;;5186779;28;20044;-69
2023/06/08 08:31:56;;;;;;;4.95;4.00;;;28.60;99.90;;;;;;5197117;28;20341;-69
2023/06/08 08:34:27;;;;;;;5.35;3.90;;;29.10;88.40;;;;;;5221058;28;20596;-69
2023/06/08 08:36:58;;;;;;;5.05;4.45;;;29.70;1.00;;;;;;5203749;28;20037;-69
2023/06/08 08:39:29;;;;;;;3.92;3.47;;;27.90;1.00;;;;;;5215974;28;20051;-66
2023/06/08 08:42:12;;;;;;;4.75;4.25;;;27.50;1.00;;;;;;5215123;28;20043;-67
2023/06/08 08:44:47;;;;;;;5.55;4.00;;;28.10;1.00;;;;;;5212422;28;20031;-70
2023/06/08 08:47:19;;;;;;;5.75;3.95;;;28.50;1.00;;;;;;5178690;28;20649;-68
2023/06/08 08:50:04;;;;;;;4.80;4.30;;;29.00;1.00;;;;;;5181097;28;20036;-72
2023/06/08 08:52:40;;;;;;;;;;;29.10;1.00;;;;;;5199499;28;20039;-70
2023/06/08 08:55:16;;;;;;;5.68;4.55;;;30.00;1.00;;;;;;5219691;28;20415;-70
2023/06/08 08:57:47;;;;;;;5.70;4.50;;;29.90;1.00;;;;;;5219098;28;20448;-68
2023/06/08 09:00:22;;;;;;;7.85;4.30;;;29.30;1.00;;;;;;5178794;28;20037;-71
2023/06/08 09:02:54;;;;;;;5.18;4.63;;;29.20;1.00;;;;;;5197660;28;20041;-67
2023/06/08 09:05:26;;;;;;;7.60;5.40;;;28.70;1.00;;;;;;5167339;28;20037;-70
2023/06/08 09:07:59;;;;;;;5.57;4.78;;;28.20;1.00;;;;;;5199660;28;20329;-67
2023/06/08 09:10:33;;;;;;;5.45;4.70;;;27.90;1.00;;;;;;5215500;28;20051;-70
2023/06/08 09:13:05;;;;;;;7.68;5.50;;;28.00;1.00;;;;;;5203063;28;20245;-70
2023/06/08 09:15:37;;;;;;;7.15;5.60;;;28.20;1.00;;;;;;5191577;28;20038;-70
2023/06/08 09:18:22;;;;;;;7.50;5.47;;;28.00;1.00;;;;;;5192232;28;20029;-67
2023/06/08 09:20:55;;;;;;;6.03;5.25;;;27.80;1.00;;;;;;5210432;28;20029;-69
2023/06/08 09:23:26;;;;;;;8.25;5.88;;;27.60;1.00;;;;;;5190860;28;20043;-67
2023/06/08 09:25:58;;;;;;;6.75;5.38;;;27.20;1.00;;;;;;5170509;28;20047;-67
2023/06/08 09:28:29;;;;;;;6.72;5.55;;;27.70;1.00;;;;;;5203083;28;20039;-69
2023/06/08 09:31:09;;;;;;;7.50;5.93;;;28.10;1.00;;;;;;5197732;28;20036;-71
2023/06/08 09:33:42;;;;;;;7.30;5.40;;;27.90;1.00;;;;;;5211781;28;20213;-70
2023/06/08 09:36:18;;;;;;;7.45;5.88;;;28.00;1.00;;;;;;5219817;28;20035;-67
2023/06/08 09:38:55;;;;;;;8.30;6.28;;;27.40;1.00;;;;;;5188379;28;20033;-69
2023/06/08 09:41:27;;;;;;;8.07;5.47;;;27.00;1.00;;;;;;5195921;28;20047;-69
2023/06/08 09:43:59;;;;;;;7.13;5.93;;;26.70;1.00;;;;;;5219134;28;20033;-68
2023/06/08 09:46:39;;;;;;;9.45;6.05;;;26.20;1.00;;;;;;5204729;28;20029;-69
2023/06/08 09:49:13;;;;;;;8.20;5.15;;;25.70;1.00;;;;;;5218931;28;20374;-68
2023/06/08 09:51:53;;;;;;;7.72;5.22;;;25.60;1.00;;;;;;5218129;28;20339;-68
2023/06/08 09:54:26;;;;;;;7.32;5.15;;;25.70;1.00;;;;;;5217009;28;20025;-69
2023/06/08 09:57:05;;;;;;;7.10;6.03;;;25.80;1.00;;;;;;5211703;28;20039;-67
2023/06/08 09:59:41;;;;;;;6.90;5.15;;;25.70;1.00;;;;;;5211977;28;20063;-69
2023/06/08 10:02:25;;;;;;;7.80;5.75;;;25.40;1.00;;;;;;5190873;28;20036;-70
2023/06/08 10:05:05;;;;;;;9.68;6.15;;;25.00;1.00;;;;;;5198310;28;20036;-68
2023/06/08 10:07:38;;;;;;;8.10;5.68;;;24.40;99.90;;;;;;5226316;28;20036;-67
2023/06/08 10:10:24;;;;;;;8.75;6.32;;;24.10;1.00;;;;;;5213382;28;20029;-67
2023/06/08 10:12:59;;;;;;;8.02;6.25;;;23.80;1.00;;;;;;5218018;28;20221;-68
2023/06/08 10:15:33;;;;;;;9.18;6.43;;;23.60;1.00;;;;;;5215347;28;20105;-69
2023/06/08 10:18:08;;;;;;;10.43;6.80;;;23.60;99.90;;;;;;5194927;28;20025;-71
2023/06/08 10:20:40;;;;;;;6.43;4.85;;;23.50;99.90;;;;;;5217807;28;20047;-70
2023/06/08 10:23:12;;;;;;;7.82;6.10;;;23.60;99.90;;;;;;5194269;28;20032;-70
2023/06/08 10:25:46;;;;;;;7.25;5.88;;;23.70;99.90;;;;;;5194663;28;20035;-68
2023/06/08 10:28:21;;;;;;;8.40;5.22;;;23.70;1.00;;;;;;5214401;28;20049;-69
2023/06/08 10:30:55;;;;;;;6.30;5.55;;;23.50;99.90;;;;;;5209529;28;20039;-72
2023/06/08 10:33:31;;;;;;;7.43;6.05;;;23.30;99.90;;;;;;5192614;28;20043;-70
2023/06/08 10:36:10;;;;;;;8.77;6.53;;;22.30;99.90;;;;;;5213871;28;20035;-69
2023/06/08 10:39:14;;;;;;;9.68;6.57;;;21.30;99.90;;;;;;5215949;28;20396;-69
2023/06/08 10:41:57;;;;;;;8.23;5.97;;;21.40;99.90;;;;;;5211251;28;20465;-69
2023/06/08 10:44:40;;;;;;;9.60;6.70;;;21.40;1.00;;;;;;5212120;28;20025;-68
2023/06/08 10:47:15;;;;;;;7.15;5.60;;;21.30;1.00;;;;;;5214172;28;20017;-69
2023/06/08 10:49:59;;;;;;;8.63;5.20;;;21.30;1.00;;;;;;5217018;28;20020;-68
2023/06/08 10:52:58;;;;;;;8.57;6.03;;;21.50;1.00;;;;;;5217316;28;20020;-68
2023/06/08 10:55:29;;;;;;;5.90;5.03;;;21.90;1.00;;;;;;5210625;28;20033;-68
2023/06/08 10:58:26;;;;;;;4.65;3.58;;;21.60;1.00;;;;;;5217433;28;20039;-69
2023/06/08 11:01:07;;;;;;;4.13;3.38;;;21.20;99.90;;;;;;5199689;28;20056;-69
2023/06/08 11:03:49;;;;;;;5.15;3.85;;;21.10;1.00;;;;;;5216564;28;20040;-68
2023/06/08 11:06:20;;;;;;;4.47;3.50;;;21.20;1.00;;;;;;5205260;28;20041;-68
2023/06/08 11:08:54;;;;;;;3.08;2.28;;;21.20;9.20;;;;;;5205647;28;20352;-68
2023/06/08 11:11:36;;;;;;;2.55;2.22;;;21.40;1.00;;;;;;5211855;28;20066;-68
2023/06/08 11:14:12;;;;;;;4.00;2.15;;;22.70;1.00;;;;;;5215011;28;20421;-68
2023/06/08 11:16:49;;;;;;;3.83;2.20;;;23.60;1.00;;;;;;5194430;28;20382;-67
2023/06/08 11:19:25;;;;;;;2.38;1.83;;;23.40;99.90;;;;;;5218303;28;20041;-68
2023/06/08 11:21:56;;;;;;;2.13;1.48;;;23.40;99.90;;;;;;5210808;28;20037;-69
2023/06/08 11:24:31;;;;;;;1.55;1.45;;;23.50;99.90;;;;;;5216155;28;20341;-69
2023/06/08 11:27:02;;;;;;;2.35;2.15;;;24.00;99.90;;;;;;5212765;28;20033;-67
2023/06/08 11:29:34;;;;;;;3.55;2.67;;;24.50;1.00;;;;;;5208619;28;20035;-66
2023/06/08 11:32:12;;;;;;;3.22;2.60;;;24.70;99.90;;;;;;5208684;28;20154;-70
2023/06/08 11:34:45;;;;;;;3.58;3.28;;;24.70;1.00;;;;;;5213748;28;20039;-68
2023/06/08 11:37:18;;;;;;;4.53;3.85;;;25.50;1.00;;;;;;5212495;28;20033;-70
2023/06/08 11:39:49;;;;;;;4.82;3.47;;;26.00;1.00;;;;;;5212948;28;20059;-69
2023/06/08 11:42:21;;;;;;;5.47;4.13;;;27.50;99.90;;;;;;5217842;28;20039;-70
2023/06/08 11:44:57;;;;;;;4.93;4.32;;;28.60;1.00;;;;;;5218487;28;20028;-69
2023/06/08 11:47:35;;;;;;;5.13;4.07;;;30.20;99.90;;;;;;5211860;28;20021;-69
2023/06/08 11:50:08;;;;;;;5.72;4.60;;;30.80;1.00;;;;;;5222006;28;20046;-70
2023/06/08 11:52:41;;;;;;;5.43;4.07;;;30.60;1.00;;;;;;5215827;28;20032;-68
2023/06/08 11:55:22;;;;;;;6.03;4.63;;;31.40;1.00;;;;;;5220994;28;20456;-68
2023/06/08 11:58:00;;;;;;;5.43;4.50;;;31.20;1.00;;;;;;5203408;28;20037;-70
2023/06/08 12:00:32;;;;;;;5.22;4.07;;;31.50;1.00;;;;;;5195256;28;20043;-69
2023/06/08 12:03:08;;;;;;;7.13;4.28;;;31.60;1.00;;;;;;5207544;28;20048;-71
2023/06/08 12:05:40;;;;;;;5.45;4.15;;;31.50;1.00;;;;;;5210098;28;20036;-68
2023/06/08 12:08:14;;;;;;;4.60;4.00;;;31.70;1.00;;;;;;5194312;28;20552;-71
2023/06/08 12:10:47;;;;;;;4.50;4.10;;;32.40;1.00;;;;;;5197702;28;20029;-71
2023/06/08 12:13:19;;;;;;;4.43;3.80;;;31.80;1.00;;;;;;5196289;28;20041;-70
2023/06/08 12:15:54;;;;;;;5.07;4.00;;;31.90;1.00;;;;;;5226235;28;20039;-69
2023/06/08 12:18:26;;;;;;;4.72;3.70;;;31.10;1.00;;;;;;5212509;28;20024;-68
2023/06/08 12:21:06;;;;;;;4.32;3.83;;;31.80;1.00;;;;;;5197320;28;20055;-70
2023/06/08 12:23:37;;;;;;;4.20;3.80;;;32.30;1.00;;;;;;5218588;28;20040;-68
2023/06/08 12:26:12;;;;;;;5.05;3.72;;;31.20;99.90;;;;;;5220181;28;20039;-66
2023/06/08 12:28:43;;;;;;;4.22;3.47;;;30.60;99.90;;;;;;5202994;28;20037;-69
2023/06/08 12:31:16;;;;;;;4.95;3.88;;;31.20;99.90;;;;;;5218461;28;20212;-69
2023/06/08 12:33:50;;;;;;;4.32;3.33;;;30.90;99.90;;;;;;5220036;28;20032;-67
2023/06/08 12:36:22;;;;;;;4.20;3.50;;;31.70;99.90;;;;;;5215638;28;20029;-69
2023/06/08 12:38:59;;;;;;;4.50;3.30;;;31.60;99.90;;;;;;5173768;28;20045;-71
2023/06/08 12:41:30;;;;;;;4.53;3.70;;;31.40;99.90;;;;;;5215860;28;20045;-70
2023/06/08 12:44:04;;;;;;;5.18;4.15;;;31.70;99.90;;;;;;5224263;28;20033;-69
2023/06/08 12:46:36;;;;;;;4.90;4.40;;;30.20;99.90;;;;;;5211369;28;20037;-70
2023/06/08 12:49:12;;;;;;;4.78;3.63;;;29.00;99.90;;;;;;5210008;28;20047;-70
2023/06/08 12:51:44;;;;;;;4.45;3.65;;;29.40;99.90;;;;;;5195920;28;20048;-71
2023/06/08 12:54:15;;;;;;;4.60;3.90;;;29.10;1.00;;;;;;5217068;28;20522;-68
2023/06/08 12:56:49;;;;;;;5.72;3.97;;;28.90;1.00;;;;;;5195775;28;20037;-68
2023/06/08 12:59:20;;;;;;;;;;;29.10;1.00;;;;;;5212599;28;20040;-69
2023/06/08 13:01:52;;;;;;;5.53;4.32;;;28.00;1.00;;;;;;5214796;28;19921;-67
2023/06/08 13:04:26;;;;;;;4.32;3.75;;;27.50;1.00;;;;;;5207160;28;20036;-68
2023/06/08 13:06:57;;;;;;;4.43;3.63;;;27.00;1.00;;;;;;5186101;28;20033;-68
2023/06/08 13:09:29;;;;;;;4.00;3.60;;;27.40;1.00;;;;;;5219646;28;20032;-70
2023/06/08 13:12:03;;;;;;;3.97;3.58;;;27.80;1.00;;;;;;5218307;28;20033;-69
2023/06/08 13:14:37;;;;;;;4.10;2.80;;;28.40;1.00;;;;;;5219910;28;20033;-68
2023/06/08 13:17:09;;;;;;;4.45;3.53;;;28.40;1.00;;;;;;5191853;28;20043;-64
2023/06/08 13:19:44;;;;;;;3.67;3.35;;;27.70;1.00;;;;;;5202556;28;20049;-68
2023/06/08 13:22:18;;;;;;;4.53;3.70;;;27.10;1.00;;;;;;5218166;28;20260;-69
2023/06/08 13:24:50;;;;;;;4.75;3.70;;;27.20;1.00;;;;;;5217493;28;20106;-70
2023/06/08 13:27:25;;;;;;;4.05;3.33;;;26.80;1.00;;;;;;5218974;28;20028;-72
2023/06/08 13:29:59;;;;;;;5.70;3.92;;;27.10;1.00;;;;;;5224814;28;20107;-66